Time;durP1;ratioP1;P1;durP2;ratioP2;P2;SDS_P1;SDS_P2;PMS_P1;PMS_P2;Temp;Humidity;BMP_temperature;BMP_pressure;BME280_temperature;BME280_humidity;BME280_pressure;Samples;Min_cycle;Max_cycle;Signal;HPM_P1;HPM_P2
2022/03/03 00:01:44;;;;;;;3.03;1.10;;;20.80;89.00;;;;;;5019172;28;20032;-79
2022/03/03 00:04:11;;;;;;;2.83;1.40;;;20.90;89.10;;;;;;5005500;28;20038;-79
2022/03/03 00:06:36;;;;;;;2.47;1.38;;;20.90;89.30;;;;;;5006352;28;20021;-79
2022/03/03 00:09:04;;;;;;;3.00;1.73;;;20.80;89.30;;;;;;5022147;28;20029;-79
2022/03/03 00:11:30;;;;;;;2.83;1.45;;;20.90;89.50;;;;;;5022058;28;20034;-79
2022/03/03 00:13:56;;;;;;;5.45;1.45;;;20.90;89.60;;;;;;5007348;28;20017;-78
2022/03/03 00:16:22;;;;;;;3.30;1.52;;;20.90;89.70;;;;;;5005042;28;20029;-79
2022/03/03 00:18:48;;;;;;;3.20;1.55;;;20.80;89.70;;;;;;5009174;28;20029;-79
2022/03/03 00:21:13;;;;;;;3.10;1.20;;;20.80;89.90;;;;;;5006500;28;20040;-79
2022/03/03 00:23:39;;;;;;;2.95;1.48;;;20.80;89.90;;;;;;5007253;28;20135;-79
2022/03/03 00:26:05;;;;;;;2.78;1.55;;;20.80;90.00;;;;;;5007671;28;20029;-80
2022/03/03 00:28:30;;;;;;;2.30;1.38;;;20.80;90.00;;;;;;5006296;28;20097;-79
2022/03/03 00:30:56;;;;;;;1.85;1.35;;;20.80;90.00;;;;;;5022448;28;20030;-79
2022/03/03 00:33:22;;;;;;;2.75;1.27;;;20.80;90.00;;;;;;5004449;28;20109;-79
2022/03/03 00:35:48;;;;;;;3.03;1.40;;;20.80;90.00;;;;;;5004766;28;20041;-79
2022/03/03 00:38:16;;;;;;;3.28;1.83;;;20.70;90.00;;;;;;5003697;28;20029;-78
2022/03/03 00:40:41;;;;;;;3.25;1.45;;;20.70;90.00;;;;;;5007314;28;20037;-79
2022/03/03 00:43:08;;;;;;;3.30;1.83;;;20.80;90.10;;;;;;5021109;28;20037;-79
2022/03/03 00:45:34;;;;;;;2.85;1.42;;;20.80;90.10;;;;;;5022481;28;20037;-79
2022/03/03 00:48:00;;;;;;;2.15;1.27;;;20.80;90.10;;;;;;5024833;28;20448;-79
2022/03/03 00:50:26;;;;;;;3.08;1.63;;;20.80;90.10;;;;;;5022955;28;20056;-79
2022/03/03 00:52:52;;;;;;;2.30;1.38;;;20.80;90.10;;;;;;5008173;28;20030;-79
2022/03/03 00:55:18;;;;;;;2.47;1.50;;;20.80;90.20;;;;;;5008371;28;20090;-79
2022/03/03 00:57:44;;;;;;;1.83;1.33;;;20.70;90.20;;;;;;5010967;28;20069;-79
2022/03/03 01:00:28;;;;;;;2.70;1.35;;;20.70;90.20;;;;;;5013270;28;20434;-79
2022/03/03 01:02:53;;;;;;;3.78;1.80;;;20.70;90.20;;;;;;5024848;28;20038;-79
2022/03/03 01:05:19;;;;;;;2.95;1.55;;;20.70;90.20;;;;;;5009517;28;20037;-79
2022/03/03 01:07:45;;;;;;;2.00;1.50;;;20.70;90.20;;;;;;5022344;28;20095;-79
2022/03/03 01:10:11;;;;;;;2.45;1.52;;;20.70;90.20;;;;;;5007556;28;20033;-79
2022/03/03 01:12:38;;;;;;;2.70;1.40;;;20.70;90.20;;;;;;5008696;28;20058;-79
2022/03/03 01:15:06;;;;;;;2.22;1.33;;;20.70;90.20;;;;;;5025514;28;20036;-79
2022/03/03 01:17:31;;;;;;;2.28;1.48;;;20.70;90.30;;;;;;5026827;28;20038;-79
2022/03/03 01:19:57;;;;;;;2.63;1.58;;;20.70;90.30;;;;;;5030623;28;20060;-79
2022/03/03 01:22:23;;;;;;;1.67;1.15;;;20.60;90.30;;;;;;5011407;28;20029;-79
2022/03/03 01:24:49;;;;;;;2.10;1.40;;;20.60;90.30;;;;;;5030721;28;20041;-79
2022/03/03 01:27:15;;;;;;;2.20;1.20;;;20.60;90.30;;;;;;5014885;28;20041;-79
2022/03/03 01:29:41;;;;;;;2.38;1.25;;;20.60;90.30;;;;;;5013451;28;20034;-79
2022/03/03 01:32:07;;;;;;;2.28;1.25;;;20.60;90.30;;;;;;5014549;28;20026;-79
2022/03/03 01:34:34;;;;;;;2.92;1.33;;;20.60;90.30;;;;;;5029148;28;20088;-79
2022/03/03 01:37:00;;;;;;;1.92;1.35;;;20.60;90.40;;;;;;5026138;28;20048;-79
2022/03/03 01:39:25;;;;;;;2.47;1.42;;;20.60;90.40;;;;;;5027313;28;20030;-79
2022/03/03 01:41:51;;;;;;;1.73;1.27;;;20.60;90.40;;;;;;5011775;28;20103;-79
2022/03/03 01:44:17;;;;;;;1.70;1.27;;;20.60;90.40;;;;;;5011381;28;20034;-79
2022/03/03 01:46:54;;;;;;;1.63;1.27;;;20.50;90.40;;;;;;5025331;28;20034;-79
2022/03/03 01:49:20;;;;;;;2.40;1.42;;;20.50;90.50;;;;;;5027098;28;20037;-79
2022/03/03 01:51:46;;;;;;;1.67;1.20;;;20.50;90.50;;;;;;5027339;28;20468;-79
2022/03/03 01:54:12;;;;;;;3.40;1.35;;;20.50;90.40;;;;;;5024704;28;20033;-79
2022/03/03 01:56:40;;;;;;;1.50;1.10;;;20.50;90.40;;;;;;5009936;28;20841;-80
2022/03/03 01:59:06;;;;;;;3.58;1.70;;;20.50;90.40;;;;;;5026065;28;20026;-79
2022/03/03 02:01:32;;;;;;;2.67;1.60;;;20.50;90.40;;;;;;5009547;28;20437;-79
2022/03/03 02:03:58;;;;;;;1.60;1.25;;;20.50;90.40;;;;;;5007517;28;20046;-79
2022/03/03 02:06:25;;;;;;;3.38;1.45;;;20.50;90.40;;;;;;5025338;28;20033;-78
2022/03/03 02:08:53;;;;;;;3.00;1.50;;;20.50;90.40;;;;;;5026848;28;20037;-79
2022/03/03 02:11:20;;;;;;;1.73;1.35;;;20.50;90.40;;;;;;5023846;28;20334;-80
2022/03/03 02:13:46;;;;;;;2.35;1.35;;;20.50;90.40;;;;;;5023837;28;20044;-79
2022/03/03 02:16:12;;;;;;;2.20;1.52;;;20.50;90.40;;;;;;5011732;28;20359;-79
2022/03/03 02:18:42;;;;;;;2.00;1.23;;;20.50;90.40;;;;;;5010668;28;20037;-79
2022/03/03 02:21:13;;;;;;;2.75;1.50;;;20.50;90.40;;;;;;5009067;28;20038;-79
2022/03/03 02:23:39;;;;;;;2.28;1.17;;;20.50;90.40;;;;;;5008471;28;20121;-80
2022/03/03 02:26:07;;;;;;;5.57;1.25;;;20.50;90.40;;;;;;5027114;28;20101;-78
2022/03/03 02:28:33;;;;;;;2.67;1.50;;;20.50;90.40;;;;;;5012883;28;20489;-79
2022/03/03 02:30:59;;;;;;;3.03;1.35;;;20.50;90.40;;;;;;5012252;28;20057;-79
2022/03/03 02:33:25;;;;;;;1.63;1.02;;;20.60;90.40;;;;;;5010962;28;20022;-79
2022/03/03 02:35:50;;;;;;;5.53;1.52;;;20.40;90.40;;;;;;5009097;28;20048;-78
2022/03/03 02:38:16;;;;;;;2.17;1.48;;;20.50;90.40;;;;;;5029013;28;20113;-79
2022/03/03 02:40:42;;;;;;;2.88;1.35;;;20.40;90.30;;;;;;5028886;28;20033;-78
2022/03/03 02:43:07;;;;;;;1.55;1.10;;;20.40;90.40;;;;;;5006399;28;20030;-79
2022/03/03 02:45:33;;;;;;;2.33;1.50;;;20.40;90.40;;;;;;5023671;28;20057;-79
2022/03/03 02:47:59;;;;;;;1.10;1.00;;;20.40;90.40;;;;;;5006852;28;20065;-79
2022/03/03 02:50:25;;;;;;;2.20;1.40;;;20.40;90.40;;;;;;5008334;28;20026;-79
2022/03/03 02:52:50;;;;;;;2.13;1.33;;;20.40;90.40;;;;;;5008800;28;20033;-79
2022/03/03 02:55:17;;;;;;;1.55;1.30;;;20.40;90.40;;;;;;5009890;28;20057;-79
2022/03/03 02:57:54;;;;;;;2.42;1.30;;;20.40;90.40;;;;;;5012018;28;20054;-79
2022/03/03 03:00:22;;;;;;;2.25;1.40;;;20.40;90.30;;;;;;5025738;28;20022;-79
2022/03/03 03:02:47;;;;;;;1.30;1.10;;;20.40;90.30;;;;;;5024788;28;20030;-80
2022/03/03 03:05:13;;;;;;;3.47;1.23;;;20.40;90.30;;;;;;5009936;28;20488;-80
2022/03/03 03:07:38;;;;;;;5.63;1.88;;;20.40;90.30;;;;;;5024269;28;20030;-80
2022/03/03 03:10:06;;;;;;;4.18;1.13;;;20.40;90.30;;;;;;5011798;28;20045;-79
2022/03/03 03:12:32;;;;;;;2.47;1.08;;;20.40;90.30;;;;;;5026975;28;20026;-79
2022/03/03 03:14:57;;;;;;;1.50;1.20;;;20.40;90.30;;;;;;5027702;28;20088;-79
2022/03/03 03:17:23;;;;;;;2.42;1.25;;;20.40;90.30;;;;;;5027256;28;20034;-79
2022/03/03 03:19:49;;;;;;;1.73;1.13;;;20.30;90.30;;;;;;5028638;28;20029;-79
2022/03/03 03:22:15;;;;;;;2.45;1.42;;;20.30;90.30;;;;;;5013670;28;20125;-80
2022/03/03 03:24:40;;;;;;;2.35;1.58;;;20.40;90.30;;;;;;5015556;28;20042;-80
2022/03/03 03:27:06;;;;;;;2.95;1.45;;;20.40;90.30;;;;;;5012585;28;20029;-79
2022/03/03 03:29:32;;;;;;;1.85;1.30;;;20.30;90.30;;;;;;5030332;28;20060;-79
2022/03/03 03:31:58;;;;;;;2.92;1.10;;;20.30;90.30;;;;;;5029516;28;20034;-79
2022/03/03 03:34:24;;;;;;;2.58;1.30;;;20.30;90.30;;;;;;5031289;28;20018;-80
2022/03/03 03:36:50;;;;;;;1.80;1.25;;;20.30;90.30;;;;;;5014364;28;20091;-79
2022/03/03 03:39:16;;;;;;;2.35;1.30;;;20.30;90.30;;;;;;5030760;28;20049;-80
2022/03/03 03:41:43;;;;;;;2.15;1.20;;;20.30;90.30;;;;;;5014946;28;20090;-79
2022/03/03 03:44:09;;;;;;;2.00;1.08;;;20.30;90.30;;;;;;5014426;28;20051;-79
2022/03/03 03:46:36;;;;;;;3.67;1.83;;;20.30;90.30;;;;;;5035707;28;20029;-78
2022/03/03 03:49:02;;;;;;;2.47;1.38;;;20.30;90.30;;;;;;5016024;28;20036;-78
2022/03/03 03:51:27;;;;;;;2.03;1.20;;;20.30;90.30;;;;;;5011053;28;20033;-79
2022/03/03 03:53:53;;;;;;;2.30;1.40;;;20.30;90.30;;;;;;5016379;28;20026;-79
2022/03/03 03:56:19;;;;;;;2.33;1.13;;;20.30;90.30;;;;;;5029382;28;20033;-79
2022/03/03 03:58:45;;;;;;;1.77;1.55;;;20.20;90.30;;;;;;5012393;28;20037;-80
2022/03/03 04:01:11;;;;;;;2.20;1.30;;;20.20;90.30;;;;;;5029192;28;20061;-79
2022/03/03 04:03:37;;;;;;;2.00;1.25;;;20.30;90.30;;;;;;5013359;28;20030;-80
2022/03/03 04:06:04;;;;;;;1.60;1.15;;;20.30;90.20;;;;;;5013882;28;20053;-79
2022/03/03 04:08:30;;;;;;;2.08;1.50;;;20.30;90.20;;;;;;5030515;28;20029;-79
2022/03/03 04:10:56;;;;;;;4.90;1.23;;;20.30;90.20;;;;;;5012823;28;20044;-80
2022/03/03 04:13:21;;;;;;;2.70;1.45;;;20.20;90.20;;;;;;5014322;28;20022;-79
2022/03/03 04:15:47;;;;;;;1.38;1.10;;;20.30;90.20;;;;;;5013210;28;20038;-79
2022/03/03 04:18:13;;;;;;;2.63;1.33;;;20.20;90.20;;;;;;5012444;28;20053;-80
2022/03/03 04:20:39;;;;;;;1.75;1.10;;;20.30;90.20;;;;;;5027794;28;20131;-80
2022/03/03 04:23:05;;;;;;;1.58;1.10;;;20.20;90.20;;;;;;5028027;28;20496;-79
2022/03/03 04:25:31;;;;;;;1.58;1.00;;;20.20;90.10;;;;;;5008063;28;20350;-79
2022/03/03 04:27:57;;;;;;;1.80;0.90;;;20.30;90.20;;;;;;5011177;28;20044;-80
2022/03/03 04:30:22;;;;;;;3.30;1.35;;;20.20;90.10;;;;;;5010310;28;20033;-79
2022/03/03 04:32:48;;;;;;;1.52;1.13;;;20.30;90.20;;;;;;5009676;28;20037;-79
2022/03/03 04:35:14;;;;;;;1.90;1.02;;;20.20;90.10;;;;;;5025127;28;20057;-79
2022/03/03 04:37:39;;;;;;;1.73;1.23;;;20.20;90.10;;;;;;5012446;28;20084;-79
2022/03/03 04:40:06;;;;;;;1.35;1.10;;;20.20;90.10;;;;;;5013372;28;20026;-80
2022/03/03 04:42:32;;;;;;;1.73;1.08;;;20.20;90.10;;;;;;5012915;28;20032;-79
2022/03/03 04:44:58;;;;;;;1.98;1.10;;;20.20;90.10;;;;;;5015103;28;20029;-79
2022/03/03 04:47:24;;;;;;;1.95;0.90;;;20.20;90.00;;;;;;5030781;28;20075;-79
2022/03/03 04:49:50;;;;;;;2.20;1.40;;;20.20;90.00;;;;;;5013415;28;20033;-79
2022/03/03 04:52:16;;;;;;;1.90;1.20;;;20.20;90.00;;;;;;5030306;28;20057;-80
2022/03/03 04:54:42;;;;;;;1.85;0.98;;;20.20;90.00;;;;;;5031563;28;20053;-79
2022/03/03 04:57:08;;;;;;;2.00;1.13;;;20.20;90.00;;;;;;5031687;28;20018;-79
2022/03/03 04:59:33;;;;;;;3.00;1.48;;;20.20;90.00;;;;;;5014940;28;20113;-79
2022/03/03 05:01:59;;;;;;;2.00;0.82;;;20.20;90.00;;;;;;5029517;28;20053;-79
2022/03/03 05:04:25;;;;;;;2.00;1.40;;;20.20;90.00;;;;;;5014604;28;20040;-79
2022/03/03 05:06:51;;;;;;;1.73;1.10;;;20.20;90.00;;;;;;5014201;28;20093;-79
2022/03/03 05:09:17;;;;;;;2.05;1.30;;;20.20;89.90;;;;;;5013879;28;20244;-80
2022/03/03 05:11:43;;;;;;;2.22;1.25;;;20.20;89.90;;;;;;5014642;28;20037;-79
2022/03/03 05:14:09;;;;;;;1.27;0.98;;;20.20;89.90;;;;;;5035425;28;20022;-79
2022/03/03 05:16:35;;;;;;;2.17;1.27;;;20.20;89.90;;;;;;5016026;28;20018;-78
2022/03/03 05:19:01;;;;;;;2.38;0.95;;;20.20;89.90;;;;;;5016835;28;20029;-78
2022/03/03 05:21:31;;;;;;;1.42;1.02;;;20.20;89.90;;;;;;5015789;28;20056;-81
2022/03/03 05:23:58;;;;;;;2.08;0.90;;;20.20;89.80;;;;;;5035214;28;20026;-79
2022/03/03 05:26:24;;;;;;;2.38;1.42;;;20.30;89.80;;;;;;5013441;28;20088;-80
2022/03/03 05:28:49;;;;;;;1.80;1.08;;;20.30;89.80;;;;;;5015597;28;20018;-78
2022/03/03 05:31:15;;;;;;;2.03;1.27;;;20.30;89.80;;;;;;5016193;28;20061;-79
2022/03/03 05:33:43;;;;;;;1.52;1.10;;;20.30;89.70;;;;;;5029461;28;20057;-79
2022/03/03 05:36:10;;;;;;;1.52;1.00;;;20.30;89.80;;;;;;5014615;28;20090;-79
2022/03/03 05:38:37;;;;;;;3.60;1.27;;;20.30;89.60;;;;;;5032975;28;20041;-79
2022/03/03 05:41:04;;;;;;;2.72;1.40;;;20.30;89.60;;;;;;5030253;28;20060;-79
2022/03/03 05:43:31;;;;;;;1.38;1.17;;;20.30;89.60;;;;;;5027915;28;20057;-80
2022/03/03 05:45:57;;;;;;;2.10;1.13;;;20.30;89.60;;;;;;5016290;28;20029;-79
2022/03/03 05:48:25;;;;;;;1.52;1.08;;;20.30;89.60;;;;;;5031959;28;20013;-79
2022/03/03 05:50:51;;;;;;;1.65;1.10;;;20.30;89.60;;;;;;5016940;28;20028;-80
2022/03/03 05:53:18;;;;;;;1.20;0.95;;;20.30;89.60;;;;;;5031077;28;20018;-80
2022/03/03 05:55:59;;;;;;;1.27;0.95;;;20.30;89.60;;;;;;5015030;28;20057;-78
2022/03/03 05:58:42;;;;;;;2.60;0.73;;;20.30;89.60;;;;;;5032784;28;20021;-78
2022/03/03 06:01:11;;;;;;;1.60;1.10;;;20.30;89.60;;;;;;5033598;28;20030;-78
2022/03/03 06:03:38;;;;;;;1.20;1.05;;;20.30;89.60;;;;;;5017271;28;20037;-80
2022/03/03 06:06:17;;;;;;;1.15;0.80;;;20.30;89.60;;;;;;5034704;28;20044;-78
2022/03/03 06:09:02;;;;;;;1.88;0.90;;;20.40;89.70;;;;;;5018662;28;20026;-78
2022/03/03 06:11:29;;;;;;;1.80;1.10;;;20.30;89.60;;;;;;5032185;28;20030;-80
2022/03/03 06:14:08;;;;;;;1.90;1.15;;;20.30;89.60;;;;;;5033039;28;20021;-78
2022/03/03 06:16:35;;;;;;;2.03;1.10;;;20.40;89.60;;;;;;5034133;28;20186;-79
2022/03/03 06:19:02;;;;;;;2.13;1.10;;;20.40;89.60;;;;;;5035887;28;20029;-79
2022/03/03 06:21:29;;;;;;;1.65;0.88;;;20.40;89.60;;;;;;5035331;28;20080;-79
2022/03/03 06:23:55;;;;;;;1.17;0.95;;;20.40;89.50;;;;;;5020987;28;20025;-78
2022/03/03 06:26:21;;;;;;;1.98;1.00;;;20.40;89.50;;;;;;5036455;28;20033;-79
2022/03/03 06:28:48;;;;;;;2.58;1.00;;;20.40;89.50;;;;;;5020982;28;20029;-78
2022/03/03 06:31:14;;;;;;;1.27;0.88;;;20.40;89.40;;;;;;5036340;28;20039;-79
2022/03/03 06:33:41;;;;;;;1.55;0.93;;;20.40;89.50;;;;;;5021000;28;20060;-78
2022/03/03 06:36:08;;;;;;;1.85;0.93;;;20.40;89.40;;;;;;5020244;28;20029;-79
2022/03/03 06:38:34;;;;;;;1.58;1.02;;;20.40;89.40;;;;;;5017145;28;20075;-79
2022/03/03 06:41:02;;;;;;;1.50;1.00;;;20.40;89.40;;;;;;5021308;28;20627;-78
2022/03/03 06:43:29;;;;;;;0.75;0.68;;;20.40;89.30;;;;;;5019723;28;20026;-78
2022/03/03 06:45:58;;;;;;;1.77;1.17;;;20.40;89.30;;;;;;5017467;28;20064;-80
2022/03/03 06:48:24;;;;;;;1.15;0.68;;;20.50;89.30;;;;;;5033917;28;20045;-79
2022/03/03 06:50:52;;;;;;;1.50;1.02;;;20.50;89.30;;;;;;5018953;28;20038;-78
2022/03/03 06:53:28;;;;;;;1.30;1.00;;;20.50;89.20;;;;;;5034329;28;20026;-78
2022/03/03 06:56:07;;;;;;;1.08;0.85;;;20.50;89.10;;;;;;5035534;28;20026;-79
2022/03/03 06:58:34;;;;;;;2.17;1.00;;;20.50;89.10;;;;;;5018022;28;20037;-78
2022/03/03 07:01:04;;;;;;;1.98;0.90;;;20.50;89.00;;;;;;5035508;28;20076;-79
2022/03/03 07:03:30;;;;;;;1.25;0.70;;;20.50;88.90;;;;;;5032821;28;20037;-79
2022/03/03 07:05:57;;;;;;;1.73;1.00;;;20.50;88.90;;;;;;5033446;28;20052;-77
2022/03/03 07:08:23;;;;;;;1.90;1.00;;;20.50;88.70;;;;;;5029514;28;20097;-78
2022/03/03 07:10:48;;;;;;;1.23;0.80;;;20.60;88.80;;;;;;5012973;28;20057;-79
2022/03/03 07:13:18;;;;;;;6.22;0.93;;;20.60;89.00;;;;;;5018198;28;20073;-78
2022/03/03 07:16:12;;;;;;;2.45;1.17;;;20.70;88.90;;;;;;5030431;28;20030;-79
2022/03/03 07:18:42;;;;;;;2.40;1.13;;;20.60;86.80;;;;;;5012643;28;20070;-80
2022/03/03 07:21:50;;;;;;;1.58;1.20;;;20.70;86.80;;;;;;5016719;28;20048;-77
2022/03/03 07:24:28;;;;;;;3.28;1.30;;;20.60;86.80;;;;;;5020858;28;20034;-78
2022/03/03 07:27:02;;;;;;;1.42;1.08;;;20.60;87.10;;;;;;5036767;28;20006;-79
2022/03/03 07:29:32;;;;;;;3.58;1.27;;;20.60;87.20;;;;;;5033531;28;20060;-78
2022/03/03 07:32:07;;;;;;;1.38;0.90;;;20.60;87.40;;;;;;5032341;28;20067;-79
2022/03/03 07:34:35;;;;;;;1.80;0.90;;;20.60;87.50;;;;;;5033910;28;20029;-79
2022/03/03 07:37:11;;;;;;;3.88;1.00;;;20.60;87.50;;;;;;5035237;28;20040;-76
2022/03/03 07:39:46;;;;;;;1.45;0.90;;;20.60;87.50;;;;;;5036565;28;20284;-78
2022/03/03 07:42:19;;;;;;;1.60;0.90;;;20.70;87.60;;;;;;5032996;28;20044;-79
2022/03/03 07:44:46;;;;;;;3.85;1.33;;;20.70;87.60;;;;;;5036263;28;20022;-78
2022/03/03 07:47:12;;;;;;;5.55;1.40;;;20.70;87.60;;;;;;5015933;28;20073;-78
2022/03/03 07:49:40;;;;;;;5.28;1.20;;;20.70;87.60;;;;;;5018934;28;20018;-79
2022/03/03 07:52:07;;;;;;;1.52;0.90;;;20.70;87.60;;;;;;5037923;28;20064;-78
2022/03/03 07:54:34;;;;;;;3.33;1.10;;;20.70;87.60;;;;;;5034186;28;20017;-78
2022/03/03 07:57:01;;;;;;;3.40;1.27;;;20.80;87.60;;;;;;5021505;28;20061;-79
2022/03/03 07:59:35;;;;;;;1.98;0.90;;;20.80;87.60;;;;;;5019870;28;20064;-79
2022/03/03 08:02:03;;;;;;;1.35;0.77;;;20.80;87.60;;;;;;5035516;28;20075;-78
2022/03/03 08:04:31;;;;;;;2.97;1.17;;;20.80;87.60;;;;;;5020843;28;20025;-79
2022/03/03 08:07:05;;;;;;;1.98;0.75;;;20.80;87.60;;;;;;5028179;28;21722;-79
2022/03/03 08:09:33;;;;;;;2.42;1.27;;;20.80;87.60;;;;;;5026534;28;20049;-78
2022/03/03 08:12:02;;;;;;;1.77;1.38;;;20.80;86.60;;;;;;5009038;28;20033;-78
2022/03/03 08:14:30;;;;;;;2.83;1.65;;;20.90;86.30;;;;;;5033828;28;20022;-76
2022/03/03 08:16:56;;;;;;;3.47;2.22;;;20.90;77.60;;;;;;5036202;28;20481;-79
2022/03/03 08:19:22;;;;;;;2.88;1.40;;;20.90;81.90;;;;;;5019003;28;20085;-80
2022/03/03 08:21:49;;;;;;;3.78;2.00;;;20.80;82.00;;;;;;5034460;28;20044;-80
2022/03/03 08:24:15;;;;;;;4.10;1.40;;;20.90;82.30;;;;;;5030583;28;20033;-77
2022/03/03 08:26:45;;;;;;;3.13;1.92;;;20.80;82.60;;;;;;5027241;28;20030;-77
2022/03/03 08:29:12;;;;;;;3.13;1.30;;;20.80;82.80;;;;;;5034532;28;20029;-76
2022/03/03 08:31:40;;;;;;;3.00;1.35;;;20.90;83.20;;;;;;5019728;28;20037;-78
2022/03/03 08:34:16;;;;;;;1.98;1.15;;;20.90;83.40;;;;;;5019303;28;20026;-78
2022/03/03 08:36:54;;;;;;;5.18;1.25;;;20.90;83.60;;;;;;5007932;28;20796;-79
2022/03/03 08:39:26;;;;;;;3.45;1.67;;;20.90;83.90;;;;;;5012917;28;20156;-77
2022/03/03 08:41:58;;;;;;;7.18;1.70;;;20.90;84.00;;;;;;5047086;22;20024;-77
2022/03/03 08:44:33;;;;;;;2.20;1.45;;;21.00;84.20;;;;;;5053760;28;20062;-77
2022/03/03 08:46:59;;;;;;;2.75;1.60;;;21.00;84.20;;;;;;5052581;28;20037;-77
2022/03/03 08:49:37;;;;;;;2.28;1.20;;;21.00;84.30;;;;;;5050260;28;20021;-77
2022/03/03 08:52:04;;;;;;;3.22;1.63;;;21.00;84.30;;;;;;5050805;28;20040;-76
2022/03/03 08:54:30;;;;;;;3.63;1.45;;;21.00;84.30;;;;;;5061577;28;20040;-80
2022/03/03 08:56:56;;;;;;;3.10;1.40;;;21.00;84.40;;;;;;5050889;28;20021;-76
2022/03/03 08:59:22;;;;;;;2.78;1.42;;;21.00;84.40;;;;;;5050223;28;20032;-78
2022/03/03 09:01:49;;;;;;;3.30;1.50;;;21.10;84.40;;;;;;5048375;28;20488;-76
2022/03/03 09:04:15;;;;;;;5.47;1.63;;;21.10;84.40;;;;;;5043849;28;20033;-79
2022/03/03 09:06:41;;;;;;;1.65;1.20;;;21.10;85.10;;;;;;5043627;28;20036;-79
2022/03/03 09:09:06;;;;;;;2.35;1.27;;;21.00;84.40;;;;;;5048670;28;20037;-76
2022/03/03 09:11:32;;;;;;;2.45;1.10;;;21.10;84.40;;;;;;5047572;28;20028;-77
2022/03/03 09:13:58;;;;;;;2.33;1.25;;;21.10;84.40;;;;;;5049225;28;20048;-78
2022/03/03 09:16:23;;;;;;;2.00;1.23;;;21.10;84.30;;;;;;5044527;28;20120;-79
2022/03/03 09:18:49;;;;;;;2.67;1.15;;;21.20;84.20;;;;;;5042184;28;20048;-79
2022/03/03 09:21:15;;;;;;;4.05;1.52;;;21.20;84.00;;;;;;5059499;28;20093;-79
2022/03/03 09:23:42;;;;;;;2.83;1.50;;;21.20;83.60;;;;;;5038331;28;20140;-79
2022/03/03 09:26:08;;;;;;;2.47;1.73;;;21.20;83.00;;;;;;5037243;28;20021;-79
2022/03/03 09:28:34;;;;;;;5.72;1.80;;;21.20;82.10;;;;;;5051634;28;20327;-79
2022/03/03 09:31:00;;;;;;;5.03;1.88;;;21.20;81.40;;;;;;5035768;28;20055;-78
2022/03/03 09:33:27;;;;;;;3.33;1.52;;;21.20;80.60;;;;;;5037321;28;20029;-78
2022/03/03 09:35:52;;;;;;;3.50;1.77;;;21.20;79.90;;;;;;5037896;28;20037;-79
2022/03/03 09:38:18;;;;;;;4.53;2.22;;;21.20;79.10;;;;;;5042451;28;20025;-79
2022/03/03 09:40:45;;;;;;;2.78;1.70;;;21.30;78.50;;;;;;5070214;28;20037;-79
2022/03/03 09:43:11;;;;;;;3.65;2.17;;;21.20;78.10;;;;;;5070470;28;20048;-80
2022/03/03 09:45:38;;;;;;;2.35;1.27;;;21.20;77.60;;;;;;5052916;28;20143;-79
2022/03/03 09:48:09;;;;;;;3.72;1.90;;;21.20;77.00;;;;;;5051472;28;20032;-78
2022/03/03 09:50:38;;;;;;;5.03;2.53;;;21.30;76.40;;;;;;5052222;28;20021;-78
2022/03/03 09:53:09;;;;;;;3.97;2.63;;;21.20;75.80;;;;;;5053648;28;20076;-79
2022/03/03 09:55:36;;;;;;;5.90;2.20;;;21.20;75.70;;;;;;5053609;28;20025;-78
2022/03/03 09:58:06;;;;;;;4.55;1.90;;;21.20;75.80;;;;;;5053956;28;20049;-79
2022/03/03 10:00:37;;;;;;;4.32;1.65;;;21.30;76.10;;;;;;5054377;28;20021;-79
2022/03/03 10:03:13;;;;;;;3.75;1.70;;;21.30;76.50;;;;;;5058255;28;20040;-79
2022/03/03 10:05:59;;;;;;;5.35;1.52;;;21.30;76.80;;;;;;5054933;28;20026;-78
2022/03/03 10:08:26;;;;;;;3.20;1.90;;;21.30;77.20;;;;;;5056763;28;20025;-80
2022/03/03 10:11:02;;;;;;;2.67;1.45;;;21.30;77.50;;;;;;5054484;28;20036;-79
2022/03/03 10:13:47;;;;;;;3.65;1.85;;;21.30;77.80;;;;;;5055470;28;20083;-80
2022/03/03 10:16:23;;;;;;;4.03;1.50;;;21.30;78.00;;;;;;5056637;28;20081;-79
2022/03/03 10:18:51;;;;;;;3.63;1.38;;;21.30;78.20;;;;;;5054814;28;20021;-80
2022/03/03 10:21:17;;;;;;;3.35;1.83;;;21.30;78.20;;;;;;5056944;28;20121;-79
2022/03/03 10:23:43;;;;;;;6.75;1.52;;;21.40;78.40;;;;;;5056977;28;20029;-81
2022/03/03 10:26:09;;;;;;;2.30;1.50;;;21.40;78.40;;;;;;5057075;28;20037;-80
2022/03/03 10:28:37;;;;;;;3.92;1.40;;;21.40;78.20;;;;;;5053171;28;20033;-78
2022/03/03 10:31:05;;;;;;;1.95;1.50;;;21.40;78.10;;;;;;5052727;28;20029;-80
2022/03/03 10:33:45;;;;;;;4.00;1.80;;;21.40;78.10;;;;;;5057202;28;20044;-80
2022/03/03 10:36:15;;;;;;;5.85;1.45;;;21.40;78.20;;;;;;5072178;28;20028;-80
2022/03/03 10:38:44;;;;;;;3.30;1.73;;;21.30;78.20;;;;;;5054822;28;20037;-80
2022/03/03 10:41:31;;;;;;;3.80;1.70;;;21.40;78.40;;;;;;5056566;28;20021;-80
2022/03/03 10:44:05;;;;;;;4.80;1.63;;;21.40;78.30;;;;;;5056521;28;20060;-80
2022/03/03 10:46:37;;;;;;;6.07;1.65;;;21.40;78.20;;;;;;5073241;28;20047;-80
2022/03/03 10:49:24;;;;;;;4.45;1.55;;;21.40;78.30;;;;;;5057785;28;20044;-79
2022/03/03 10:51:53;;;;;;;3.22;1.70;;;21.40;78.40;;;;;;5052671;28;20051;-79
2022/03/03 10:54:20;;;;;;;2.97;1.75;;;21.40;78.30;;;;;;5052021;28;20172;-81
2022/03/03 10:56:57;;;;;;;6.38;1.75;;;21.40;78.10;;;;;;5055887;28;20041;-81
2022/03/03 10:59:25;;;;;;;7.15;1.50;;;21.50;78.50;;;;;;5055529;28;20029;-81
2022/03/03 11:01:53;;;;;;;4.50;1.65;;;21.50;78.50;;;;;;5055165;28;20009;-81
2022/03/03 11:04:21;;;;;;;3.70;1.85;;;21.50;78.10;;;;;;5056891;28;20096;-80
2022/03/03 11:06:52;;;;;;;5.05;1.83;;;21.50;78.80;;;;;;5068960;28;20020;-80
2022/03/03 11:09:18;;;;;;;4.18;1.63;;;21.50;79.00;;;;;;5056456;28;20020;-80
2022/03/03 11:11:48;;;;;;;3.80;1.40;;;21.50;79.10;;;;;;5057827;28;20047;-80
2022/03/03 11:14:14;;;;;;;3.67;1.85;;;21.50;79.30;;;;;;5073753;28;20028;-80
2022/03/03 11:16:43;;;;;;;5.30;1.75;;;21.50;79.40;;;;;;5049699;28;20029;-80
2022/03/03 11:19:16;;;;;;;2.95;1.77;;;21.60;79.50;;;;;;5051560;28;20029;-80
2022/03/03 11:21:41;;;;;;;4.70;2.88;;;21.60;79.60;;;;;;5069478;28;20039;-76
2022/03/03 11:24:08;;;;;;;5.05;3.25;;;21.50;68.60;;;;;;5052452;28;20021;-79
2022/03/03 11:26:41;;;;;;;4.60;2.45;;;21.50;63.60;;;;;;5047989;28;20040;-78
2022/03/03 11:29:13;;;;;;;10.73;2.38;;;21.60;72.10;;;;;;5068285;28;20020;-78
2022/03/03 11:31:43;;;;;;;7.78;2.22;;;21.60;72.70;;;;;;5064018;28;20037;-79
2022/03/03 11:34:32;;;;;;;3.15;1.98;;;21.60;73.00;;;;;;5045999;28;20044;-79
2022/03/03 11:37:10;;;;;;;2.65;1.90;;;21.60;73.30;;;;;;5042998;28;20040;-79
2022/03/03 11:39:48;;;;;;;5.10;1.90;;;21.60;73.70;;;;;;5035536;28;20473;-77
2022/03/03 11:42:28;;;;;;;5.18;1.98;;;21.60;74.20;;;;;;5036651;28;20057;-79
2022/03/03 11:45:06;;;;;;;5.10;1.83;;;21.60;74.60;;;;;;5042371;28;21753;-79
2022/03/03 11:47:35;;;;;;;3.70;1.67;;;21.60;75.00;;;;;;5034021;28;20120;-78
2022/03/03 11:50:27;;;;;;;3.13;1.70;;;21.60;75.20;;;;;;5049402;28;20049;-76
2022/03/03 11:52:59;;;;;;;4.57;1.70;;;21.60;75.30;;;;;;5035272;28;20077;-79
2022/03/03 11:55:25;;;;;;;;;;;21.60;75.60;;;;;;5060343;28;20461;-78
2022/03/03 11:57:53;;;;;;;4.90;2.10;;;21.60;76.00;;;;;;5046840;28;19943;-78
2022/03/03 12:00:19;;;;;;;2.22;1.48;;;21.70;76.30;;;;;;5048656;28;20097;-78
2022/03/03 12:02:59;;;;;;;2.78;1.40;;;21.70;76.50;;;;;;5038896;28;21015;-79
2022/03/03 12:05:27;;;;;;;3.97;1.80;;;21.70;76.70;;;;;;5060536;28;20051;-79
2022/03/03 12:08:01;;;;;;;4.07;2.17;;;21.70;76.70;;;;;;5049503;28;20029;-79
2022/03/03 12:10:27;;;;;;;3.35;1.23;;;21.70;76.60;;;;;;5037429;28;20032;-79
2022/03/03 12:13:13;;;;;;;7.72;1.63;;;21.70;76.70;;;;;;5041838;28;20134;-78
2022/03/03 12:16:00;;;;;;;2.13;1.23;;;21.80;76.90;;;;;;5041836;28;20025;-79
2022/03/03 12:18:34;;;;;;;14.40;1.90;;;21.80;77.00;;;;;;5059677;28;20863;-80
2022/03/03 12:21:21;;;;;;;2.05;1.55;;;21.80;77.10;;;;;;5039023;28;20178;-79
2022/03/03 12:23:47;;;;;;;2.90;1.58;;;21.80;77.20;;;;;;5042375;28;20021;-79
2022/03/03 12:26:13;;;;;;;2.60;1.70;;;21.80;77.20;;;;;;5041264;28;20097;-80
2022/03/03 12:28:45;;;;;;;3.60;1.60;;;21.80;77.30;;;;;;5042865;28;20040;-78
2022/03/03 12:31:24;;;;;;;3.70;1.42;;;21.90;77.40;;;;;;5039921;28;20058;-80
2022/03/03 12:33:57;;;;;;;2.80;1.60;;;21.90;77.60;;;;;;5040803;28;20060;-79
2022/03/03 12:36:23;;;;;;;3.95;1.70;;;21.90;77.50;;;;;;5036024;28;20025;-79
2022/03/03 12:38:51;;;;;;;2.55;1.40;;;21.90;77.60;;;;;;5038941;28;20021;-79
2022/03/03 12:41:18;;;;;;;3.13;1.63;;;21.90;77.60;;;;;;5039453;28;20036;-79
2022/03/03 12:43:43;;;;;;;5.28;1.42;;;21.90;77.50;;;;;;5036636;28;20033;-80
2022/03/03 12:46:11;;;;;;;3.38;1.38;;;21.90;77.50;;;;;;5041565;28;20041;-80
2022/03/03 12:48:39;;;;;;;2.70;1.20;;;21.90;77.50;;;;;;5058416;28;20025;-77
2022/03/03 12:51:06;;;;;;;3.20;1.48;;;21.90;77.50;;;;;;5051455;28;20112;-80
2022/03/03 12:53:40;;;;;;;2.38;1.23;;;22.00;77.40;;;;;;5043655;28;20025;-79
2022/03/03 12:56:06;;;;;;;2.42;1.33;;;22.00;77.40;;;;;;5047149;28;20048;-77